sensor_id;sensor_type;location;lat;lon;timestamp;temperature;humidity
19755;DHT22;10036;47.812;9.274;2022-11-14T00:00:22;6.40;99.90
19755;DHT22;10036;47.812;9.274;2022-11-14T00:02:49;6.30;99.90
19755;DHT22;10036;47.812;9.274;2022-11-14T00:05:16;6.30;99.90
19755;DHT22;10036;47.812;9.274;2022-11-14T00:07:43;6.20;99.90
19755;DHT22;10036;47.812;9.274;2022-11-14T00:10:12;6.30;99.90
19755;DHT22;10036;47.812;9.274;2022-11-14T00:12:39;6.30;99.90
19755;DHT22;10036;47.812;9.274;2022-11-14T00:15:07;6.30;99.90
19755;DHT22;10036;47.812;9.274;2022-11-14T00:17:34;6.30;99.90
19755;DHT22;10036;47.812;9.274;2022-11-14T00:20:01;6.20;99.90
19755;DHT22;10036;47.812;9.274;2022-11-14T00:22:28;6.20;99.90
19755;DHT22;10036;47.812;9.274;2022-11-14T00:24:55;6.20;99.90
19755;DHT22;10036;47.812;9.274;2022-11-14T00:27:23;6.30;99.90
19755;DHT22;10036;47.812;9.274;2022-11-14T00:29:51;6.30;99.90
19755;DHT22;10036;47.812;9.274;2022-11-14T00:32:18;6.30;99.90
19755;DHT22;10036;47.812;9.274;2022-11-14T00:34:47;6.30;99.90
19755;DHT22;10036;47.812;9.274;2022-11-14T00:37:13;6.40;99.90
19755;DHT22;10036;47.812;9.274;2022-11-14T00:39:40;6.30;99.90
19755;DHT22;10036;47.812;9.274;2022-11-14T00:42:07;6.30;99.90
19755;DHT22;10036;47.812;9.274;2022-11-14T00:44:36;6.30;99.90
19755;DHT22;10036;47.812;9.274;2022-11-14T00:47:03;6.30;99.90
19755;DHT22;10036;47.812;9.274;2022-11-14T00:49:30;6.30;99.90
19755;DHT22;10036;47.812;9.274;2022-11-14T00:51:57;6.30;99.90
19755;DHT22;10036;47.812;9.274;2022-11-14T00:54:23;6.20;99.90
19755;DHT22;10036;47.812;9.274;2022-11-14T00:56:51;6.30;99.90
19755;DHT22;10036;47.812;9.274;2022-11-14T00:59:18;6.30;99.90
19755;DHT22;10036;47.812;9.274;2022-11-14T01:01:46;6.30;99.90
19755;DHT22;10036;47.812;9.274;2022-11-14T01:04:13;6.30;99.90
19755;DHT22;10036;47.812;9.274;2022-11-14T01:06:40;6.30;99.90
19755;DHT22;10036;47.812;9.274;2022-11-14T01:09:07;6.30;99.90
19755;DHT22;10036;47.812;9.274;2022-11-14T01:11:34;6.40;99.90
19755;DHT22;10036;47.812;9.274;2022-11-14T01:14:01;6.40;99.90
19755;DHT22;10036;47.812;9.274;2022-11-14T01:16:27;6.40;99.90
19755;DHT22;10036;47.812;9.274;2022-11-14T01:18:56;6.40;99.90
19755;DHT22;10036;47.812;9.274;2022-11-14T01:21:23;6.40;99.90
19755;DHT22;10036;47.812;9.274;2022-11-14T01:23:50;6.40;99.90
19755;DHT22;10036;47.812;9.274;2022-11-14T01:26:17;6.60;99.90
19755;DHT22;10036;47.812;9.274;2022-11-14T01:28:43;6.40;99.90
19755;DHT22;10036;47.812;9.274;2022-11-14T01:31:12;6.40;99.90
19755;DHT22;10036;47.812;9.274;2022-11-14T01:33:41;6.50;99.90
19755;DHT22;10036;47.812;9.274;2022-11-14T01:36:09;6.50;99.90
19755;DHT22;10036;47.812;9.274;2022-11-14T01:38:37;6.50;99.90
19755;DHT22;10036;47.812;9.274;2022-11-14T01:41:04;6.50;99.90
19755;DHT22;10036;47.812;9.274;2022-11-14T01:43:33;6.50;99.90
19755;DHT22;10036;47.812;9.274;2022-11-14T01:46:02;6.50;99.90
19755;DHT22;10036;47.812;9.274;2022-11-14T01:48:34;6.50;99.90
19755;DHT22;10036;47.812;9.274;2022-11-14T01:51:16;6.50;99.90
19755;DHT22;10036;47.812;9.274;2022-11-14T01:53:45;6.40;99.90
19755;DHT22;10036;47.812;9.274;2022-11-14T01:56:16;6.50;99.90
19755;DHT22;10036;47.812;9.274;2022-11-14T01:58:47;6.50;99.90
19755;DHT22;10036;47.812;9.274;2022-11-14T02:01:15;6.50;99.90
19755;DHT22;10036;47.812;9.274;2022-11-14T02:03:43;6.50;99.90
19755;DHT22;10036;47.812;9.274;2022-11-14T02:06:17;6.50;99.90
19755;DHT22;10036;47.812;9.274;2022-11-14T02:08:45;6.70;99.90
19755;DHT22;10036;47.812;9.274;2022-11-14T02:11:13;6.60;99.90
19755;DHT22;10036;47.812;9.274;2022-11-14T02:13:40;6.60;99.90
19755;DHT22;10036;47.812;9.274;2022-11-14T02:16:07;6.60;99.90
19755;DHT22;10036;47.812;9.274;2022-11-14T02:18:33;6.50;99.90
19755;DHT22;10036;47.812;9.274;2022-11-14T02:21:02;6.50;99.90
19755;DHT22;10036;47.812;9.274;2022-11-14T02:23:30;6.50;99.90
19755;DHT22;10036;47.812;9.274;2022-11-14T02:25:58;6.50;99.90
19755;DHT22;10036;47.812;9.274;2022-11-14T02:28:25;6.50;99.90
19755;DHT22;10036;47.812;9.274;2022-11-14T02:30:52;6.60;99.90
19755;DHT22;10036;47.812;9.274;2022-11-14T02:33:19;6.60;99.90
19755;DHT22;10036;47.812;9.274;2022-11-14T02:35:46;6.50;99.90
19755;DHT22;10036;47.812;9.274;2022-11-14T02:38:15;6.50;99.90
19755;DHT22;10036;47.812;9.274;2022-11-14T02:40:42;6.50;99.90
19755;DHT22;10036;47.812;9.274;2022-11-14T02:43:08;6.50;99.90
19755;DHT22;10036;47.812;9.274;2022-11-14T02:45:35;6.70;99.90
19755;DHT22;10036;47.812;9.274;2022-11-14T02:48:03;6.50;99.90
19755;DHT22;10036;47.812;9.274;2022-11-14T02:50:31;6.50;99.90
19755;DHT22;10036;47.812;9.274;2022-11-14T02:52:58;6.50;99.90
19755;DHT22;10036;47.812;9.274;2022-11-14T02:55:26;6.50;99.90
19755;DHT22;10036;47.812;9.274;2022-11-14T02:57:53;6.50;99.90
19755;DHT22;10036;47.812;9.274;2022-11-14T03:00:20;6.50;99.90
19755;DHT22;10036;47.812;9.274;2022-11-14T03:02:47;6.50;99.90
19755;DHT22;10036;47.812;9.274;2022-11-14T03:05:14;6.50;99.90
19755;DHT22;10036;47.812;9.274;2022-11-14T03:07:41;6.50;99.90
19755;DHT22;10036;47.812;9.274;2022-11-14T03:10:09;6.70;99.90
19755;DHT22;10036;47.812;9.274;2022-11-14T03:12:37;6.60;99.90
19755;DHT22;10036;47.812;9.274;2022-11-14T03:15:05;6.60;99.90
19755;DHT22;10036;47.812;9.274;2022-11-14T03:17:32;6.60;99.90
19755;DHT22;10036;47.812;9.274;2022-11-14T03:19:59;6.60;99.90
19755;DHT22;10036;47.812;9.274;2022-11-14T03:22:26;6.50;99.90
19755;DHT22;10036;47.812;9.274;2022-11-14T03:24:53;6.60;99.90
19755;DHT22;10036;47.812;9.274;2022-11-14T03:27:20;6.60;99.90
19755;DHT22;10036;47.812;9.274;2022-11-14T03:29:48;6.60;99.90
19755;DHT22;10036;47.812;9.274;2022-11-14T03:32:15;6.60;99.90
19755;DHT22;10036;47.812;9.274;2022-11-14T03:34:42;6.60;99.90
19755;DHT22;10036;47.812;9.274;2022-11-14T03:37:09;6.60;99.90
19755;DHT22;10036;47.812;9.274;2022-11-14T03:39:36;6.60;99.90
19755;DHT22;10036;47.812;9.274;2022-11-14T03:42:03;6.60;99.90
19755;DHT22;10036;47.812;9.274;2022-11-14T03:44:30;6.60;99.90
19755;DHT22;10036;47.812;9.274;2022-11-14T03:46:58;6.50;99.90
19755;DHT22;10036;47.812;9.274;2022-11-14T03:49:25;6.60;99.90
19755;DHT22;10036;47.812;9.274;2022-11-14T03:51:52;6.60;99.90
19755;DHT22;10036;47.812;9.274;2022-11-14T03:54:19;6.80;99.90
19755;DHT22;10036;47.812;9.274;2022-11-14T03:56:46;6.60;99.90
19755;DHT22;10036;47.812;9.274;2022-11-14T03:59:12;6.60;99.90
19755;DHT22;10036;47.812;9.274;2022-11-14T04:01:39;6.70;99.90
19755;DHT22;10036;47.812;9.274;2022-11-14T04:04:10;6.70;99.90
19755;DHT22;10036;47.812;9.274;2022-11-14T04:06:37;6.80;99.90
19755;DHT22;10036;47.812;9.274;2022-11-14T04:09:04;6.70;99.90
19755;DHT22;10036;47.812;9.274;2022-11-14T04:11:32;6.60;99.90
19755;DHT22;10036;47.812;9.274;2022-11-14T04:13:58;6.70;99.90
19755;DHT22;10036;47.812;9.274;2022-11-14T04:16:25;6.60;99.90
19755;DHT22;10036;47.812;9.274;2022-11-14T04:18:52;6.60;99.90
19755;DHT22;10036;47.812;9.274;2022-11-14T04:21:21;6.70;99.90
19755;DHT22;10036;47.812;9.274;2022-11-14T04:23:48;6.70;99.90
19755;DHT22;10036;47.812;9.274;2022-11-14T04:26:15;6.70;99.90
19755;DHT22;10036;47.812;9.274;2022-11-14T04:28:42;6.60;99.90
19755;DHT22;10036;47.812;9.274;2022-11-14T04:31:09;6.70;99.90
19755;DHT22;10036;47.812;9.274;2022-11-14T04:33:35;6.60;99.90
19755;DHT22;10036;47.812;9.274;2022-11-14T04:36:03;6.70;99.90
19755;DHT22;10036;47.812;9.274;2022-11-14T04:38:31;6.70;99.90
19755;DHT22;10036;47.812;9.274;2022-11-14T04:40:58;6.80;99.90
19755;DHT22;10036;47.812;9.274;2022-11-14T04:43:25;6.70;99.90
19755;DHT22;10036;47.812;9.274;2022-11-14T04:45:51;6.80;99.90
19755;DHT22;10036;47.812;9.274;2022-11-14T04:48:18;6.70;99.90
19755;DHT22;10036;47.812;9.274;2022-11-14T04:50:45;6.70;99.90
19755;DHT22;10036;47.812;9.274;2022-11-14T04:53:12;6.70;99.90
19755;DHT22;10036;47.812;9.274;2022-11-14T04:55:42;6.70;99.90
19755;DHT22;10036;47.812;9.274;2022-11-14T04:58:09;6.70;99.90
19755;DHT22;10036;47.812;9.274;2022-11-14T05:00:36;6.60;99.90
19755;DHT22;10036;47.812;9.274;2022-11-14T05:03:03;6.70;99.90
19755;DHT22;10036;47.812;9.274;2022-11-14T05:05:31;6.70;99.90
19755;DHT22;10036;47.812;9.274;2022-11-14T05:07:57;6.70;99.90
19755;DHT22;10036;47.812;9.274;2022-11-14T05:10:24;6.70;99.90
19755;DHT22;10036;47.812;9.274;2022-11-14T05:12:53;6.60;99.90
19755;DHT22;10036;47.812;9.274;2022-11-14T05:15:20;6.70;99.90
19755;DHT22;10036;47.812;9.274;2022-11-14T05:17:47;6.80;99.90
19755;DHT22;10036;47.812;9.274;2022-11-14T05:20:15;6.70;99.90
19755;DHT22;10036;47.812;9.274;2022-11-14T05:22:42;6.80;99.90
19755;DHT22;10036;47.812;9.274;2022-11-14T05:25:09;6.70;99.90
19755;DHT22;10036;47.812;9.274;2022-11-14T05:27:37;6.60;99.90
19755;DHT22;10036;47.812;9.274;2022-11-14T05:30:06;6.60;99.90
19755;DHT22;10036;47.812;9.274;2022-11-14T05:32:34;6.60;99.90
19755;DHT22;10036;47.812;9.274;2022-11-14T05:35:01;6.60;99.90
19755;DHT22;10036;47.812;9.274;2022-11-14T05:37:28;6.60;99.90
19755;DHT22;10036;47.812;9.274;2022-11-14T05:39:55;6.60;99.90
19755;DHT22;10036;47.812;9.274;2022-11-14T05:42:22;6.70;99.90
19755;DHT22;10036;47.812;9.274;2022-11-14T05:44:49;6.60;99.90
19755;DHT22;10036;47.812;9.274;2022-11-14T05:47:18;6.70;99.90
19755;DHT22;10036;47.812;9.274;2022-11-14T05:49:45;6.60;99.90
19755;DHT22;10036;47.812;9.274;2022-11-14T05:52:12;6.60;99.90
19755;DHT22;10036;47.812;9.274;2022-11-14T05:54:38;6.60;99.90
19755;DHT22;10036;47.812;9.274;2022-11-14T05:57:05;6.60;99.90
19755;DHT22;10036;47.812;9.274;2022-11-14T05:59:33;6.60;99.90
19755;DHT22;10036;47.812;9.274;2022-11-14T06:01:59;6.60;99.90
19755;DHT22;10036;47.812;9.274;2022-11-14T06:04:28;6.60;99.90
19755;DHT22;10036;47.812;9.274;2022-11-14T06:06:54;6.60;99.90
19755;DHT22;10036;47.812;9.274;2022-11-14T06:09:21;6.50;99.90
19755;DHT22;10036;47.812;9.274;2022-11-14T06:11:48;6.50;99.90
19755;DHT22;10036;47.812;9.274;2022-11-14T06:14:16;6.60;99.90
19755;DHT22;10036;47.812;9.274;2022-11-14T06:16:42;6.60;99.90
19755;DHT22;10036;47.812;9.274;2022-11-14T06:19:10;6.50;99.90
19755;DHT22;10036;47.812;9.274;2022-11-14T06:21:38;6.50;99.90
19755;DHT22;10036;47.812;9.274;2022-11-14T06:24:06;6.50;99.90
19755;DHT22;10036;47.812;9.274;2022-11-14T06:26:33;6.50;99.90
19755;DHT22;10036;47.812;9.274;2022-11-14T06:29:00;6.40;99.90
19755;DHT22;10036;47.812;9.274;2022-11-14T06:31:27;6.40;99.90
19755;DHT22;10036;47.812;9.274;2022-11-14T06:33:54;6.40;99.90
19755;DHT22;10036;47.812;9.274;2022-11-14T06:36:21;6.40;99.90
19755;DHT22;10036;47.812;9.274;2022-11-14T06:38:49;6.40;99.90
19755;DHT22;10036;47.812;9.274;2022-11-14T06:41:18;6.40;99.90
19755;DHT22;10036;47.812;9.274;2022-11-14T06:43:47;6.40;99.90
19755;DHT22;10036;47.812;9.274;2022-11-14T06:46:17;6.40;99.90
19755;DHT22;10036;47.812;9.274;2022-11-14T06:48:45;6.40;99.90
19755;DHT22;10036;47.812;9.274;2022-11-14T06:51:13;6.40;99.90
19755;DHT22;10036;47.812;9.274;2022-11-14T06:53:41;6.50;99.90
19755;DHT22;10036;47.812;9.274;2022-11-14T06:56:11;6.40;99.90
19755;DHT22;10036;47.812;9.274;2022-11-14T06:58:40;6.40;99.90
19755;DHT22;10036;47.812;9.274;2022-11-14T07:01:10;6.40;99.90
19755;DHT22;10036;47.812;9.274;2022-11-14T07:03:37;6.40;99.90
19755;DHT22;10036;47.812;9.274;2022-11-14T07:06:05;6.40;99.90
19755;DHT22;10036;47.812;9.274;2022-11-14T07:08:33;6.40;99.90
19755;DHT22;10036;47.812;9.274;2022-11-14T07:11:01;6.50;99.90
19755;DHT22;10036;47.812;9.274;2022-11-14T07:13:30;6.50;99.90
19755;DHT22;10036;47.812;9.274;2022-11-14T07:15:57;6.50;99.90
19755;DHT22;10036;47.812;9.274;2022-11-14T07:18:25;6.60;99.90
19755;DHT22;10036;47.812;9.274;2022-11-14T07:20:57;6.60;99.90
19755;DHT22;10036;47.812;9.274;2022-11-14T07:23:25;6.70;99.90
19755;DHT22;10036;47.812;9.274;2022-11-14T07:25:52;6.70;99.90
19755;DHT22;10036;47.812;9.274;2022-11-14T07:28:19;6.80;99.90
19755;DHT22;10036;47.812;9.274;2022-11-14T07:30:47;6.80;99.90
19755;DHT22;10036;47.812;9.274;2022-11-14T07:33:14;6.80;99.90
19755;DHT22;10036;47.812;9.274;2022-11-14T07:35:41;6.70;99.90
19755;DHT22;10036;47.812;9.274;2022-11-14T07:38:08;6.70;99.90
19755;DHT22;10036;47.812;9.274;2022-11-14T07:40:35;6.70;99.90
19755;DHT22;10036;47.812;9.274;2022-11-14T07:43:02;6.80;99.90
19755;DHT22;10036;47.812;9.274;2022-11-14T07:45:30;6.80;99.90
19755;DHT22;10036;47.812;9.274;2022-11-14T07:48:00;6.80;99.90
19755;DHT22;10036;47.812;9.274;2022-11-14T07:50:28;6.80;99.90
19755;DHT22;10036;47.812;9.274;2022-11-14T07:52:55;6.70;99.90
19755;DHT22;10036;47.812;9.274;2022-11-14T07:55:23;6.70;99.90
19755;DHT22;10036;47.812;9.274;2022-11-14T07:57:52;6.70;99.90
19755;DHT22;10036;47.812;9.274;2022-11-14T08:00:20;6.90;99.90
19755;DHT22;10036;47.812;9.274;2022-11-14T08:02:46;6.80;99.90
19755;DHT22;10036;47.812;9.274;2022-11-14T08:05:15;6.90;99.90
19755;DHT22;10036;47.812;9.274;2022-11-14T08:07:42;6.80;99.90
19755;DHT22;10036;47.812;9.274;2022-11-14T08:10:10;6.90;99.90
19755;DHT22;10036;47.812;9.274;2022-11-14T08:12:38;6.90;99.90
19755;DHT22;10036;47.812;9.274;2022-11-14T08:15:06;6.90;99.90
19755;DHT22;10036;47.812;9.274;2022-11-14T08:17:33;6.90;99.90
19755;DHT22;10036;47.812;9.274;2022-11-14T08:20:00;6.80;99.90
19755;DHT22;10036;47.812;9.274;2022-11-14T08:22:28;6.90;99.90
19755;DHT22;10036;47.812;9.274;2022-11-14T08:24:56;6.90;99.90
19755;DHT22;10036;47.812;9.274;2022-11-14T08:27:23;6.90;99.90
19755;DHT22;10036;47.812;9.274;2022-11-14T08:29:50;6.90;99.90
19755;DHT22;10036;47.812;9.274;2022-11-14T08:32:17;6.90;99.90
19755;DHT22;10036;47.812;9.274;2022-11-14T08:34:44;7.00;99.90
19755;DHT22;10036;47.812;9.274;2022-11-14T08:37:11;7.00;99.90
19755;DHT22;10036;47.812;9.274;2022-11-14T08:39:39;7.00;99.90
19755;DHT22;10036;47.812;9.274;2022-11-14T08:42:06;7.00;99.90
19755;DHT22;10036;47.812;9.274;2022-11-14T08:44:33;7.00;99.90
19755;DHT22;10036;47.812;9.274;2022-11-14T08:47:00;7.00;99.90
19755;DHT22;10036;47.812;9.274;2022-11-14T08:49:28;7.00;99.90
19755;DHT22;10036;47.812;9.274;2022-11-14T08:51:55;7.00;99.90
19755;DHT22;10036;47.812;9.274;2022-11-14T08:54:22;7.00;99.90
19755;DHT22;10036;47.812;9.274;2022-11-14T08:56:50;7.00;99.90
19755;DHT22;10036;47.812;9.274;2022-11-14T08:59:17;7.10;99.90
19755;DHT22;10036;47.812;9.274;2022-11-14T09:01:44;7.00;99.90
19755;DHT22;10036;47.812;9.274;2022-11-14T09:04:11;7.00;99.90
19755;DHT22;10036;47.812;9.274;2022-11-14T09:06:38;7.00;99.90
19755;DHT22;10036;47.812;9.274;2022-11-14T09:09:05;7.10;99.90
19755;DHT22;10036;47.812;9.274;2022-11-14T09:11:32;7.10;99.90
19755;DHT22;10036;47.812;9.274;2022-11-14T09:14:01;7.30;99.90
19755;DHT22;10036;47.812;9.274;2022-11-14T09:16:28;7.30;99.90
19755;DHT22;10036;47.812;9.274;2022-11-14T09:18:55;7.40;99.90
19755;DHT22;10036;47.812;9.274;2022-11-14T09:21:22;7.50;99.90
19755;DHT22;10036;47.812;9.274;2022-11-14T09:23:49;7.50;99.90
19755;DHT22;10036;47.812;9.274;2022-11-14T09:26:19;7.50;99.90
19755;DHT22;10036;47.812;9.274;2022-11-14T09:28:46;7.40;99.90
19755;DHT22;10036;47.812;9.274;2022-11-14T09:31:15;7.40;99.90
19755;DHT22;10036;47.812;9.274;2022-11-14T09:33:43;7.60;99.90
19755;DHT22;10036;47.812;9.274;2022-11-14T09:36:11;7.50;99.90
19755;DHT22;10036;47.812;9.274;2022-11-14T09:38:40;7.50;99.90
19755;DHT22;10036;47.812;9.274;2022-11-14T09:41:20;7.60;99.90
19755;DHT22;10036;47.812;9.274;2022-11-14T09:44:22;7.80;99.90
19755;DHT22;10036;47.812;9.274;2022-11-14T09:46:57;7.80;99.90
19755;DHT22;10036;47.812;9.274;2022-11-14T09:49:28;8.00;99.90
19755;DHT22;10036;47.812;9.274;2022-11-14T09:52:04;8.00;99.90
19755;DHT22;10036;47.812;9.274;2022-11-14T09:54:39;8.00;99.90
19755;DHT22;10036;47.812;9.274;2022-11-14T09:57:13;7.90;99.90
19755;DHT22;10036;47.812;9.274;2022-11-14T09:59:41;7.90;99.90
19755;DHT22;10036;47.812;9.274;2022-11-14T10:02:23;7.90;99.90
19755;DHT22;10036;47.812;9.274;2022-11-14T10:05:02;7.90;99.90
19755;DHT22;10036;47.812;9.274;2022-11-14T10:07:39;7.90;99.90
19755;DHT22;10036;47.812;9.274;2022-11-14T10:10:19;7.90;99.90
19755;DHT22;10036;47.812;9.274;2022-11-14T10:12:57;7.90;99.90
19755;DHT22;10036;47.812;9.274;2022-11-14T10:15:29;8.00;99.90
19755;DHT22;10036;47.812;9.274;2022-11-14T10:18:09;7.90;99.90
19755;DHT22;10036;47.812;9.274;2022-11-14T10:20:43;7.90;99.90
19755;DHT22;10036;47.812;9.274;2022-11-14T10:23:22;7.90;99.90
19755;DHT22;10036;47.812;9.274;2022-11-14T10:25:55;8.00;99.90
19755;DHT22;10036;47.812;9.274;2022-11-14T10:28:44;8.10;99.90
19755;DHT22;10036;47.812;9.274;2022-11-14T10:31:22;8.20;99.90
19755;DHT22;10036;47.812;9.274;2022-11-14T10:33:57;8.20;99.90
19755;DHT22;10036;47.812;9.274;2022-11-14T10:36:35;8.40;99.90
19755;DHT22;10036;47.812;9.274;2022-11-14T10:39:10;8.40;99.90
19755;DHT22;10036;47.812;9.274;2022-11-14T10:41:41;8.40;99.90
19755;DHT22;10036;47.812;9.274;2022-11-14T10:44:12;8.50;99.90
19755;DHT22;10036;47.812;9.274;2022-11-14T10:46:45;8.40;99.90
19755;DHT22;10036;47.812;9.274;2022-11-14T10:49:18;8.60;99.90
19755;DHT22;10036;47.812;9.274;2022-11-14T10:51:49;8.50;99.90
19755;DHT22;10036;47.812;9.274;2022-11-14T10:54:18;8.60;99.90
19755;DHT22;10036;47.812;9.274;2022-11-14T10:56:48;8.70;99.90
19755;DHT22;10036;47.812;9.274;2022-11-14T10:59:15;8.70;99.90
19755;DHT22;10036;47.812;9.274;2022-11-14T11:01:44;8.60;99.90
19755;DHT22;10036;47.812;9.274;2022-11-14T11:04:24;8.70;99.90
19755;DHT22;10036;47.812;9.274;2022-11-14T11:06:53;8.60;99.90
19755;DHT22;10036;47.812;9.274;2022-11-14T11:09:22;8.70;99.90
19755;DHT22;10036;47.812;9.274;2022-11-14T11:12:08;8.70;99.90
19755;DHT22;10036;47.812;9.274;2022-11-14T11:14:41;8.70;99.90
19755;DHT22;10036;47.812;9.274;2022-11-14T11:17:19;8.70;99.90
19755;DHT22;10036;47.812;9.274;2022-11-14T11:19:48;8.70;99.90
19755;DHT22;10036;47.812;9.274;2022-11-14T11:22:30;8.70;99.90
19755;DHT22;10036;47.812;9.274;2022-11-14T11:25:01;8.70;99.90
19755;DHT22;10036;47.812;9.274;2022-11-14T11:27:28;8.80;99.90
19755;DHT22;10036;47.812;9.274;2022-11-14T11:30:16;8.70;99.90
19755;DHT22;10036;47.812;9.274;2022-11-14T11:32:44;8.80;99.90
19755;DHT22;10036;47.812;9.274;2022-11-14T11:35:13;8.90;99.90
19755;DHT22;10036;47.812;9.274;2022-11-14T11:37:43;8.80;99.90
19755;DHT22;10036;47.812;9.274;2022-11-14T11:40:17;8.80;99.90
19755;DHT22;10036;47.812;9.274;2022-11-14T11:42:50;8.90;99.90
19755;DHT22;10036;47.812;9.274;2022-11-14T11:45:19;8.80;99.90
19755;DHT22;10036;47.812;9.274;2022-11-14T11:47:55;9.00;99.90
19755;DHT22;10036;47.812;9.274;2022-11-14T11:50:24;9.00;99.90
19755;DHT22;10036;47.812;9.274;2022-11-14T11:53:00;9.10;99.90
19755;DHT22;10036;47.812;9.274;2022-11-14T11:55:31;9.20;99.90
19755;DHT22;10036;47.812;9.274;2022-11-14T11:58:03;9.20;99.90
19755;DHT22;10036;47.812;9.274;2022-11-14T12:00:31;9.30;99.90
19755;DHT22;10036;47.812;9.274;2022-11-14T12:02:59;9.40;99.90
19755;DHT22;10036;47.812;9.274;2022-11-14T12:05:34;9.40;99.90
19755;DHT22;10036;47.812;9.274;2022-11-14T12:08:10;9.50;99.90
19755;DHT22;10036;47.812;9.274;2022-11-14T12:10:40;9.50;99.90
19755;DHT22;10036;47.812;9.274;2022-11-14T12:13:27;9.50;99.90
19755;DHT22;10036;47.812;9.274;2022-11-14T12:16:22;9.60;99.90
19755;DHT22;10036;47.812;9.274;2022-11-14T12:22:26;9.50;99.90
19755;DHT22;10036;47.812;9.274;2022-11-14T12:25:17;9.60;99.90
19755;DHT22;10036;47.812;9.274;2022-11-14T12:28:11;9.60;99.90
19755;DHT22;10036;47.812;9.274;2022-11-14T12:30:41;9.60;99.90
19755;DHT22;10036;47.812;9.274;2022-11-14T12:33:18;9.70;99.90
19755;DHT22;10036;47.812;9.274;2022-11-14T12:35:49;9.80;99.90
19755;DHT22;10036;47.812;9.274;2022-11-14T12:38:20;9.90;99.90
19755;DHT22;10036;47.812;9.274;2022-11-14T12:40:50;10.00;99.90
19755;DHT22;10036;47.812;9.274;2022-11-14T12:43:27;10.10;99.90
19755;DHT22;10036;47.812;9.274;2022-11-14T12:46:00;10.20;99.90
19755;DHT22;10036;47.812;9.274;2022-11-14T12:48:35;10.30;99.90
19755;DHT22;10036;47.812;9.274;2022-11-14T12:51:04;10.50;99.90
19755;DHT22;10036;47.812;9.274;2022-11-14T12:53:40;10.60;99.90
19755;DHT22;10036;47.812;9.274;2022-11-14T12:59:37;10.70;99.90
19755;DHT22;10036;47.812;9.274;2022-11-14T13:02:18;10.70;99.90
19755;DHT22;10036;47.812;9.274;2022-11-14T13:05:08;10.70;99.90
19755;DHT22;10036;47.812;9.274;2022-11-14T13:07:47;10.70;99.90
19755;DHT22;10036;47.812;9.274;2022-11-14T13:10:22;10.70;99.90
19755;DHT22;10036;47.812;9.274;2022-11-14T13:13:04;10.60;99.90
19755;DHT22;10036;47.812;9.274;2022-11-14T13:15:50;10.60;99.90
19755;DHT22;10036;47.812;9.274;2022-11-14T13:18:36;10.60;99.90
19755;DHT22;10036;47.812;9.274;2022-11-14T13:21:33;10.50;99.90
19755;DHT22;10036;47.812;9.274;2022-11-14T13:24:13;10.50;99.90
19755;DHT22;10036;47.812;9.274;2022-11-14T13:26:46;10.40;99.90
19755;DHT22;10036;47.812;9.274;2022-11-14T13:35:51;10.40;99.90
19755;DHT22;10036;47.812;9.274;2022-11-14T13:42:04;10.50;99.90
19755;DHT22;10036;47.812;9.274;2022-11-14T13:50:41;10.50;99.90
19755;DHT22;10036;47.812;9.274;2022-11-14T13:53:12;10.50;99.90
19755;DHT22;10036;47.812;9.274;2022-11-14T13:55:50;10.50;99.90
19755;DHT22;10036;47.812;9.274;2022-11-14T14:01:32;10.50;99.90
19755;DHT22;10036;47.812;9.274;2022-11-14T14:04:22;10.40;99.90
19755;DHT22;10036;47.812;9.274;2022-11-14T14:07:03;10.40;99.90
19755;DHT22;10036;47.812;9.274;2022-11-14T14:09:37;10.40;99.90
19755;DHT22;10036;47.812;9.274;2022-11-14T14:12:17;10.40;99.90
19755;DHT22;10036;47.812;9.274;2022-11-14T14:14:57;10.50;99.90
19755;DHT22;10036;47.812;9.274;2022-11-14T14:17:31;10.50;99.90
19755;DHT22;10036;47.812;9.274;2022-11-14T14:20:13;10.50;99.90
19755;DHT22;10036;47.812;9.274;2022-11-14T14:22:49;10.50;99.90
19755;DHT22;10036;47.812;9.274;2022-11-14T14:25:26;10.50;99.90
19755;DHT22;10036;47.812;9.274;2022-11-14T14:28:05;10.50;99.90
19755;DHT22;10036;47.812;9.274;2022-11-14T14:30:36;10.50;99.90
19755;DHT22;10036;47.812;9.274;2022-11-14T14:33:10;10.50;99.90
19755;DHT22;10036;47.812;9.274;2022-11-14T14:35:38;10.50;99.90
19755;DHT22;10036;47.812;9.274;2022-11-14T14:38:22;10.50;99.90
19755;DHT22;10036;47.812;9.274;2022-11-14T14:40:51;10.40;99.90
19755;DHT22;10036;47.812;9.274;2022-11-14T14:43:24;10.40;99.90
19755;DHT22;10036;47.812;9.274;2022-11-14T14:45:54;10.40;99.90
19755;DHT22;10036;47.812;9.274;2022-11-14T14:48:23;10.30;99.90
19755;DHT22;10036;47.812;9.274;2022-11-14T14:50:52;10.30;99.90
19755;DHT22;10036;47.812;9.274;2022-11-14T14:53:21;10.30;99.90
19755;DHT22;10036;47.812;9.274;2022-11-14T14:55:53;10.30;99.90
19755;DHT22;10036;47.812;9.274;2022-11-14T14:58:25;10.20;99.90
19755;DHT22;10036;47.812;9.274;2022-11-14T15:00:56;10.20;99.90
19755;DHT22;10036;47.812;9.274;2022-11-14T15:03:27;10.10;99.90
19755;DHT22;10036;47.812;9.274;2022-11-14T15:06:00;10.10;99.90
19755;DHT22;10036;47.812;9.274;2022-11-14T15:08:29;10.10;99.90
19755;DHT22;10036;47.812;9.274;2022-11-14T15:10:59;10.00;99.90
19755;DHT22;10036;47.812;9.274;2022-11-14T15:13:27;10.00;99.90
19755;DHT22;10036;47.812;9.274;2022-11-14T15:15:57;10.00;99.90
19755;DHT22;10036;47.812;9.274;2022-11-14T15:18:26;10.00;99.90
19755;DHT22;10036;47.812;9.274;2022-11-14T15:21:09;9.90;99.90
19755;DHT22;10036;47.812;9.274;2022-11-14T15:23:58;9.80;99.90
19755;DHT22;10036;47.812;9.274;2022-11-14T15:26:25;9.80;99.90
19755;DHT22;10036;47.812;9.274;2022-11-14T15:29:04;9.70;99.90
19755;DHT22;10036;47.812;9.274;2022-11-14T15:31:34;9.60;99.90
19755;DHT22;10036;47.812;9.274;2022-11-14T15:34:04;9.60;99.90
19755;DHT22;10036;47.812;9.274;2022-11-14T15:36:31;9.50;99.90
19755;DHT22;10036;47.812;9.274;2022-11-14T15:39:02;9.40;99.90
19755;DHT22;10036;47.812;9.274;2022-11-14T15:41:30;9.40;99.90
19755;DHT22;10036;47.812;9.274;2022-11-14T15:43:57;9.30;99.90
19755;DHT22;10036;47.812;9.274;2022-11-14T15:46:36;9.20;99.90
19755;DHT22;10036;47.812;9.274;2022-11-14T15:49:07;9.10;99.90
19755;DHT22;10036;47.812;9.274;2022-11-14T15:51:40;9.20;99.90
19755;DHT22;10036;47.812;9.274;2022-11-14T15:54:20;9.00;99.90
19755;DHT22;10036;47.812;9.274;2022-11-14T15:56:47;9.00;99.90
19755;DHT22;10036;47.812;9.274;2022-11-14T15:59:14;8.90;99.90
19755;DHT22;10036;47.812;9.274;2022-11-14T16:01:43;8.90;99.90
19755;DHT22;10036;47.812;9.274;2022-11-14T16:04:20;8.80;99.90
19755;DHT22;10036;47.812;9.274;2022-11-14T16:06:48;8.70;99.90
19755;DHT22;10036;47.812;9.274;2022-11-14T16:09:17;8.60;99.90
19755;DHT22;10036;47.812;9.274;2022-11-14T16:11:47;8.60;99.90
19755;DHT22;10036;47.812;9.274;2022-11-14T16:14:14;8.60;99.90
19755;DHT22;10036;47.812;9.274;2022-11-14T16:16:43;8.50;99.90
19755;DHT22;10036;47.812;9.274;2022-11-14T16:19:12;8.50;99.90
19755;DHT22;10036;47.812;9.274;2022-11-14T16:21:40;8.50;99.90
19755;DHT22;10036;47.812;9.274;2022-11-14T16:24:13;8.50;99.90
19755;DHT22;10036;47.812;9.274;2022-11-14T16:26:40;8.50;99.90
19755;DHT22;10036;47.812;9.274;2022-11-14T16:29:07;8.40;99.90